This is the latest recevied weather packets stored in our database for station/object UR7D-12. If no packets are shown the sender has not sent any weather packets the latest 1 day(s).
| Time | Temp. | Humidity | Pressure | Rain* | Wind** | Luminosity | Snow |
|---|---|---|---|---|---|---|---|
| 1777986391 | 25.56° C | 32% | 987.4 hPa | 0 mm | 2.24 m/s, 213° | - | - |
| 1777986090 | 25.56° C | 30% | 987.5 hPa | 0 mm | 1.79 m/s, 255° | - | - |
| 1777984889 | 25.56° C | 33% | 987.7 hPa | 0 mm | 1.34 m/s, 234° | - | - |
| 1777983088 | 24.44° C | 32% | 988.2 hPa | 0 mm | 3.13 m/s, 283° | - | - |
| 1777982487 | 24.44° C | 33% | 988.3 hPa | 0 mm | 3.13 m/s, 231° | - | - |
| 1777981886 | 25° C | 34% | 988.3 hPa | 0 mm | 1.34 m/s, 243° | - | - |
| 1777981586 | 24.44° C | 32% | 988.5 hPa | 0 mm | 1.79 m/s, 179° | - | - |
| 1777980985 | 23.89° C | 32% | 988.6 hPa | 0 mm | 2.68 m/s, 255° | - | - |
| 1777980685 | 23.89° C | 31% | 988.8 hPa | 0 mm | 3.13 m/s, 291° | - | - |
| 1777980085 | 23.89° C | 32% | 988.7 hPa | 0 mm | 1.79 m/s, 263° | - | - |
| 1777979784 | 23.89° C | 33% | 988.6 hPa | 0 mm | 1.34 m/s, 240° | - | - |
| 1777979484 | 23.89° C | 31% | 988.6 hPa | 0 mm | 2.24 m/s, 15° | - | - |
| 1777979184 | 24.44° C | 31% | 988.8 hPa | 0 mm | 2.24 m/s, 230° | - | - |
| 1777978883 | 24.44° C | 34% | 988.7 hPa | 0 mm | 1.79 m/s, 218° | - | - |
| 1777978583 | 24.44° C | 33% | 988.8 hPa | 0 mm | 1.34 m/s, 182° | - | - |
| 1777978283 | 23.89° C | 35% | 988.8 hPa | 0 mm | 1.34 m/s, 130° | - | - |
| 1777977684 | 23.89° C | 35% | 989 hPa | 0 mm | 1.34 m/s, 235° | - | - |
| 1777977382 | 23.33° C | 35% | 989.1 hPa | 0 mm | 1.79 m/s, 274° | - | - |
| 1777977082 | 23.33° C | 33% | 989.1 hPa | 0 mm | 1.34 m/s, 312° | - | - |
| 1777976481 | 22.78° C | 33% | 989.1 hPa | 0 mm | 1.79 m/s, 243° | - | - |
| 1777975881 | 22.78° C | 34% | 989.2 hPa | 0 mm | 1.79 m/s, 211° | - | - |
| 1777974980 | 22.78° C | 35% | 989.4 hPa | 0 mm | 1.79 m/s, 229° | - | - |
| 1777974680 | 22.78° C | 35% | 989.5 hPa | 0 mm | 1.79 m/s, 328° | - | - |
| 1777974079 | 22.78° C | 34% | 989.4 hPa | 0 mm | 2.24 m/s, 205° | - | - |
| 1777973779 | 22.78° C | 36% | 989.5 hPa | 0 mm | 1.34 m/s, 244° | - | - |
* Rain latest hour (hover to see other rain measurements)
** Current wind speed in m/s (hover to see current wind gust speed)